createdAt,value
2018-11-02T00:00:31.929Z,16.80
2018-11-02T00:03:03.411Z,16.60
2018-11-02T00:05:39.806Z,16.50
2018-11-02T00:08:16.909Z,16.40
2018-11-02T00:11:04.704Z,16.30
2018-11-02T00:13:36.688Z,16.20
2018-11-02T00:16:08.960Z,16.20
2018-11-02T00:18:40.895Z,16.20
2018-11-02T00:21:13.471Z,16.10
2018-11-02T00:23:45.483Z,16.10
2018-11-02T00:26:17.589Z,16.00
2018-11-02T00:28:49.478Z,16.00
2018-11-02T00:31:22.082Z,15.80
2018-11-02T00:33:54.598Z,15.80
2018-11-02T00:36:26.316Z,15.70
2018-11-02T00:38:57.958Z,15.60
2018-11-02T00:41:29.676Z,15.50
2018-11-02T00:44:01.658Z,15.50
2018-11-02T00:49:09.828Z,15.60
2018-11-02T00:51:41.764Z,15.60
2018-11-02T00:56:50.281Z,15.70
2018-11-02T00:59:22.038Z,15.80
2018-11-02T01:01:54.779Z,15.80
2018-11-02T01:04:26.679Z,15.90
2018-11-02T01:06:58.548Z,15.90
2018-11-02T01:09:30.934Z,15.90
2018-11-02T01:12:03.133Z,16.00
2018-11-02T01:14:35.331Z,16.00
2018-11-02T01:17:07.617Z,15.90
2018-11-02T01:19:39.915Z,15.90
2018-11-02T01:22:11.888Z,16.00
2018-11-02T01:24:43.724Z,15.90
2018-11-02T01:27:15.578Z,15.90
2018-11-02T01:29:47.370Z,15.90
2018-11-02T01:32:20.083Z,15.90
2018-11-02T01:34:52.292Z,15.90
2018-11-02T01:37:24.027Z,15.90
2018-11-02T01:39:56.080Z,16.00
2018-11-02T01:42:28.034Z,16.00
2018-11-02T01:44:59.911Z,16.00
2018-11-02T01:47:32.006Z,16.00
2018-11-02T01:50:03.692Z,16.00
2018-11-02T01:52:35.712Z,16.00
2018-11-02T01:55:08.673Z,16.00
2018-11-02T01:57:40.958Z,16.00
2018-11-02T02:00:13.153Z,16.00
2018-11-02T02:02:45.268Z,16.00
2018-11-02T02:05:17.487Z,16.00
2018-11-02T02:07:49.236Z,16.00
2018-11-02T02:10:21.654Z,16.00
2018-11-02T02:12:53.448Z,16.00
2018-11-02T02:15:25.878Z,16.00
2018-11-02T02:17:57.752Z,16.00
2018-11-02T02:20:29.655Z,16.00
2018-11-02T02:23:01.807Z,16.00
2018-11-02T02:25:34.099Z,16.00
2018-11-02T02:28:07.511Z,16.10
2018-11-02T02:30:39.649Z,16.10
2018-11-02T02:33:12.198Z,16.10
2018-11-02T02:38:24.197Z,16.10
2018-11-02T02:40:55.965Z,16.20
2018-11-02T02:43:28.045Z,16.20
2018-11-02T02:45:59.956Z,16.20
2018-11-02T02:48:32.650Z,16.30
2018-11-02T02:51:04.480Z,16.30
2018-11-02T02:53:36.473Z,16.30
2018-11-02T02:56:08.536Z,16.30
2018-11-02T02:58:40.217Z,16.30
2018-11-02T03:01:12.049Z,16.30
2018-11-02T03:03:44.908Z,16.30
2018-11-02T03:08:52.907Z,16.40
2018-11-02T03:11:32.183Z,16.30
2018-11-02T03:14:04.801Z,16.30
2018-11-02T03:16:36.759Z,16.30
2018-11-02T03:19:08.811Z,16.30
2018-11-02T03:21:41.025Z,16.30
2018-11-02T03:24:14.340Z,16.30
2018-11-02T03:26:46.325Z,16.20
2018-11-02T03:29:18.028Z,16.20
2018-11-02T03:31:50.228Z,16.20
2018-11-02T03:34:22.232Z,16.10
2018-11-02T03:36:54.616Z,16.10
2018-11-02T03:39:26.499Z,16.00
2018-11-02T03:41:58.605Z,16.00
2018-11-02T03:44:30.430Z,16.00
2018-11-02T03:47:02.383Z,15.90
2018-11-02T03:49:38.730Z,15.80
2018-11-02T03:52:10.757Z,15.70
2018-11-02T03:54:42.917Z,15.60
2018-11-02T03:57:14.801Z,15.50
2018-11-02T03:59:47.107Z,15.40
2018-11-02T04:02:19.445Z,15.30
2018-11-02T04:04:51.618Z,15.10
2018-11-02T04:07:23.569Z,15.10
2018-11-02T04:09:55.886Z,15.00
2018-11-02T04:12:28.044Z,14.80
2018-11-02T04:15:00.096Z,14.70
2018-11-02T04:17:32.151Z,14.70
2018-11-02T04:20:04.877Z,14.60
2018-11-02T04:22:36.573Z,14.50
2018-11-02T04:25:08.876Z,14.50
2018-11-02T04:27:45.525Z,14.40
2018-11-02T04:30:18.022Z,14.40
2018-11-02T04:32:50.137Z,14.40
2018-11-02T04:35:21.966Z,14.30
2018-11-02T04:40:30.419Z,14.20
2018-11-02T04:43:02.359Z,14.10
2018-11-02T04:45:40.162Z,14.10
2018-11-02T04:48:12.948Z,14.10
2018-11-02T04:50:45.089Z,14.10
2018-11-02T04:53:17.384Z,14.20
2018-11-02T04:55:49.334Z,14.30
2018-11-02T04:58:21.231Z,14.40
2018-11-02T05:00:53.277Z,14.40
2018-11-02T05:03:25.083Z,14.40
2018-11-02T05:05:57.871Z,14.40
2018-11-02T05:08:30.984Z,14.40
2018-11-02T05:11:02.949Z,14.40
2018-11-02T05:13:35.088Z,14.40
2018-11-02T05:16:07.521Z,14.40
2018-11-02T05:18:39.861Z,14.30
2018-11-02T05:21:12.105Z,14.30
2018-11-02T05:23:44.473Z,14.30
2018-11-02T05:26:16.741Z,14.30
2018-11-02T05:28:48.647Z,14.40
2018-11-02T05:31:20.464Z,14.50
2018-11-02T05:33:52.765Z,14.50
2018-11-02T05:36:25.074Z,14.50
2018-11-02T05:38:57.345Z,14.50
2018-11-02T05:41:29.551Z,14.50
2018-11-02T05:44:02.099Z,14.50
2018-11-02T05:46:34.265Z,14.50
2018-11-02T05:49:06.700Z,14.50
2018-11-02T05:54:16.599Z,14.50
2018-11-02T05:56:48.488Z,14.50
2018-11-02T05:59:21.861Z,14.50
2018-11-02T06:01:53.563Z,14.50
2018-11-02T06:04:26.021Z,14.40
2018-11-02T06:06:58.074Z,14.40
2018-11-02T06:09:31.506Z,14.40
2018-11-02T06:12:04.200Z,14.50
2018-11-02T06:14:36.889Z,14.50
2018-11-02T06:17:08.640Z,14.50
2018-11-02T06:19:40.775Z,14.50
2018-11-02T06:22:13.162Z,14.20
2018-11-02T06:27:22.381Z,13.30
2018-11-02T06:29:54.326Z,13.30
2018-11-02T06:32:26.817Z,13.50
2018-11-02T06:34:58.815Z,13.70
2018-11-02T06:37:30.783Z,13.80
2018-11-02T06:40:02.796Z,13.90
2018-11-02T06:42:34.449Z,14.00
2018-11-02T06:45:07.791Z,14.10
2018-11-02T06:47:40.050Z,14.20
2018-11-02T06:50:12.654Z,14.20
2018-11-02T06:52:44.479Z,14.10
2018-11-02T06:55:16.707Z,14.10
2018-11-02T07:00:25.186Z,14.10
2018-11-02T07:02:57.140Z,14.20
2018-11-02T07:05:32.562Z,14.20
2018-11-02T07:08:05.232Z,14.20
2018-11-02T07:10:37.448Z,14.30
2018-11-02T07:13:10.283Z,14.30
2018-11-02T07:15:42.243Z,14.30
2018-11-02T07:18:14.351Z,14.40
2018-11-02T07:20:46.715Z,14.50
2018-11-02T07:23:19.078Z,14.50
2018-11-02T07:25:51.768Z,14.60
2018-11-02T07:28:24.166Z,14.70
2018-11-02T07:30:56.590Z,14.70
2018-11-02T07:33:28.866Z,14.70
2018-11-02T07:36:03.044Z,14.70
2018-11-02T07:38:35.299Z,14.70
2018-11-02T07:41:13.540Z,14.70
2018-11-02T07:46:21.803Z,14.70
2018-11-02T07:48:54.116Z,14.70
2018-11-02T07:51:27.172Z,14.80
2018-11-02T07:53:59.487Z,14.90
2018-11-02T07:56:32.227Z,15.00
2018-11-02T07:59:04.349Z,15.20
2018-11-02T08:01:36.808Z,15.30
2018-11-02T08:04:09.059Z,15.40
2018-11-02T08:06:41.343Z,15.40
2018-11-02T08:11:49.896Z,15.60
2018-11-02T08:16:58.447Z,15.70
2018-11-02T08:19:30.855Z,15.80
2018-11-02T08:22:03.227Z,16.00
2018-11-02T08:24:35.772Z,16.10
2018-11-02T08:27:08.059Z,16.20
2018-11-02T08:29:40.298Z,16.30
2018-11-02T08:32:12.838Z,16.50
2018-11-02T08:37:21.367Z,16.80
2018-11-02T08:39:57.693Z,16.90
2018-11-02T08:42:30.307Z,17.00
2018-11-02T08:45:02.474Z,17.10
2018-11-02T08:47:35.140Z,17.20
2018-11-02T08:50:08.558Z,17.30
2018-11-02T08:52:40.847Z,17.40
2018-11-02T08:57:49.366Z,17.50
2018-11-02T09:00:21.819Z,17.60
2018-11-02T09:02:54.147Z,17.60
2018-11-02T09:05:26.248Z,17.70
2018-11-02T09:07:59.252Z,17.70
2018-11-02T09:10:31.268Z,17.80
2018-11-02T09:13:03.123Z,17.90
2018-11-02T09:15:35.018Z,18.00
2018-11-02T09:18:06.746Z,18.00
2018-11-02T09:20:39.176Z,18.00
2018-11-02T09:23:11.983Z,18.10
2018-11-02T09:28:19.773Z,18.10
2018-11-02T09:30:54.371Z,18.20
2018-11-02T09:33:26.288Z,18.10
2018-11-02T09:35:58.308Z,18.30
2018-11-02T09:38:30.264Z,18.40
2018-11-02T09:41:02.404Z,18.50
2018-11-02T09:43:34.083Z,18.50
2018-11-02T09:46:07.265Z,18.60
2018-11-02T09:48:39.603Z,18.80
2018-11-02T09:51:11.218Z,18.90
2018-11-02T09:53:43.130Z,19.10
2018-11-02T09:58:51.127Z,19.20
2018-11-02T10:01:24.240Z,19.40
2018-11-02T10:06:32.470Z,19.50
2018-11-02T10:09:04.671Z,19.60
2018-11-02T10:11:36.645Z,19.60
2018-11-02T10:14:08.724Z,19.60
2018-11-02T10:16:41.148Z,19.70
2018-11-02T10:19:12.930Z,19.60
2018-11-02T10:24:21.039Z,19.60
2018-11-02T10:26:53.755Z,19.80
2018-11-02T10:29:25.743Z,20.00
2018-11-02T10:31:57.741Z,20.10
2018-11-02T10:34:30.367Z,19.90
2018-11-02T10:37:03.006Z,19.80
2018-11-02T10:42:12.114Z,20.00
2018-11-02T10:44:45.952Z,20.10
2018-11-02T10:47:18.011Z,20.20
2018-11-02T10:49:49.639Z,20.20
2018-11-02T10:52:21.420Z,20.20
2018-11-02T10:54:53.973Z,20.20
2018-11-02T10:57:26.274Z,20.30
2018-11-02T10:59:58.033Z,20.30
2018-11-02T11:02:34.948Z,20.40
2018-11-02T11:05:09.349Z,20.20
2018-11-02T11:07:41.899Z,20.10
2018-11-02T11:10:13.721Z,20.20
2018-11-02T11:12:45.892Z,20.30
2018-11-02T11:15:20.837Z,20.30
2018-11-02T11:17:52.887Z,20.40
2018-11-02T11:20:24.879Z,20.40
2018-11-02T11:22:57.656Z,20.50
2018-11-02T11:25:30.342Z,20.60
2018-11-02T11:28:02.369Z,20.70
2018-11-02T11:30:34.373Z,20.60
2018-11-02T11:33:06.824Z,20.60
2018-11-02T11:35:38.835Z,20.80
2018-11-02T11:38:10.916Z,20.90
2018-11-02T11:40:42.793Z,20.70
2018-11-02T11:43:14.772Z,20.60
2018-11-02T11:45:46.431Z,20.80
2018-11-02T11:48:18.456Z,21.60
2018-11-02T11:50:51.049Z,22.40
2018-11-02T11:53:23.078Z,22.50
2018-11-02T11:55:55.132Z,22.30
2018-11-02T11:58:27.148Z,22.80
2018-11-02T12:00:58.980Z,23.50
2018-11-02T12:03:30.856Z,24.20
2018-11-02T12:06:02.638Z,24.40
2018-11-02T12:08:35.414Z,25.00
2018-11-02T12:11:07.550Z,26.30
2018-11-02T12:13:39.440Z,27.60
2018-11-02T12:16:11.284Z,28.80
2018-11-02T12:21:22.137Z,29.90
2018-11-02T12:23:54.713Z,29.80
2018-11-02T12:26:27.496Z,28.40
2018-11-02T12:28:59.910Z,27.30
2018-11-02T12:31:31.592Z,26.70
2018-11-02T12:34:04.625Z,26.80
2018-11-02T12:39:13.495Z,27.20
2018-11-02T12:44:21.572Z,27.40
2018-11-02T12:46:55.221Z,26.60
2018-11-02T12:49:28.254Z,25.70
2018-11-02T12:51:59.971Z,25.30
2018-11-02T12:54:32.467Z,24.90
2018-11-02T12:57:04.303Z,25.00
2018-11-02T12:59:36.034Z,25.30
2018-11-02T13:02:08.391Z,25.40
2018-11-02T13:04:39.983Z,25.50
2018-11-02T13:07:11.847Z,25.30
2018-11-02T13:09:43.640Z,25.00
2018-11-02T13:14:52.676Z,24.60
2018-11-02T13:17:24.552Z,23.90
2018-11-02T13:19:56.394Z,24.20
2018-11-02T13:22:28.623Z,24.10
2018-11-02T13:25:00.519Z,24.00
2018-11-02T13:27:33.433Z,23.90
2018-11-02T13:30:06.034Z,23.80
2018-11-02T13:32:38.142Z,23.70
2018-11-02T13:35:14.469Z,23.50
2018-11-02T13:37:46.567Z,23.40
2018-11-02T13:40:19.231Z,23.20
2018-11-02T13:42:51.734Z,23.10
2018-11-02T13:45:23.692Z,23.10
2018-11-02T13:47:55.856Z,23.00
2018-11-02T13:50:27.379Z,23.10
2018-11-02T13:52:59.362Z,23.10
2018-11-02T13:55:31.507Z,23.00
2018-11-02T13:58:03.228Z,23.00
2018-11-02T14:00:35.997Z,23.00
2018-11-02T14:03:08.047Z,23.00
2018-11-02T14:05:40.085Z,23.00
2018-11-02T14:08:11.915Z,22.90
2018-11-02T14:10:43.976Z,22.80
2018-11-02T14:13:16.108Z,22.80
2018-11-02T14:15:48.125Z,22.60
2018-11-02T14:18:19.883Z,22.50
2018-11-02T14:20:52.001Z,22.60
2018-11-02T14:23:24.025Z,22.50
2018-11-02T14:25:56.837Z,22.50
2018-11-02T14:28:28.904Z,22.40
2018-11-02T14:31:00.671Z,22.30
2018-11-02T14:33:32.508Z,22.30
2018-11-02T14:36:04.974Z,22.20
2018-11-02T14:38:36.787Z,22.10
2018-11-02T14:41:08.582Z,22.10
2018-11-02T14:43:40.368Z,21.90
2018-11-02T14:46:12.457Z,21.70
2018-11-02T14:48:44.781Z,21.60
2018-11-02T14:51:16.705Z,21.50
2018-11-02T14:53:48.943Z,21.40
2018-11-02T14:56:20.520Z,21.20
2018-11-02T14:58:52.084Z,21.10
2018-11-02T15:01:23.994Z,20.90
2018-11-02T15:03:55.500Z,20.70
2018-11-02T15:06:27.695Z,20.70
2018-11-02T15:08:59.646Z,20.60
2018-11-02T15:11:31.985Z,20.40
2018-11-02T15:14:04.332Z,20.30
2018-11-02T15:16:36.066Z,20.20
2018-11-02T15:19:08.165Z,20.20
2018-11-02T15:21:39.765Z,20.00
2018-11-02T15:24:11.691Z,19.90
2018-11-02T15:26:43.577Z,19.80
2018-11-02T15:29:15.364Z,19.80
2018-11-02T15:31:46.949Z,19.60
2018-11-02T15:34:18.849Z,19.60
2018-11-02T15:36:50.612Z,19.40
2018-11-02T15:39:22.724Z,19.30
2018-11-02T15:44:31.321Z,19.20
2018-11-02T15:47:02.839Z,19.10
2018-11-02T15:49:42.899Z,19.10
2018-11-02T15:52:15.716Z,19.00
2018-11-02T15:54:47.544Z,19.00
2018-11-02T15:57:19.361Z,18.90
2018-11-02T15:59:50.935Z,18.80
2018-11-02T16:02:22.579Z,18.70
2018-11-02T16:04:54.501Z,18.50
2018-11-02T16:07:26.175Z,18.30
2018-11-02T16:09:58.186Z,18.20
2018-11-02T16:12:30.366Z,18.10
2018-11-02T16:15:02.067Z,18.10
2018-11-02T16:17:33.559Z,18.10
2018-11-02T16:20:12.589Z,18.10
2018-11-02T16:22:44.709Z,18.10
2018-11-02T16:25:17.486Z,18.00
2018-11-02T16:27:49.909Z,18.00
2018-11-02T16:30:22.083Z,18.00
2018-11-02T16:32:54.180Z,17.90
2018-11-02T16:35:26.622Z,18.00
2018-11-02T16:37:59.875Z,17.90
2018-11-02T16:40:31.611Z,17.90
2018-11-02T16:43:06.453Z,17.90
2018-11-02T16:45:38.747Z,17.80
2018-11-02T16:48:12.591Z,17.80
2018-11-02T16:50:44.348Z,17.70
2018-11-02T16:53:16.521Z,17.60
2018-11-02T16:55:48.733Z,17.50
2018-11-02T16:58:20.368Z,17.40
2018-11-02T17:00:52.531Z,17.40
2018-11-02T17:03:24.460Z,17.30
2018-11-02T17:06:01.950Z,17.20
2018-11-02T17:08:39.143Z,17.20
2018-11-02T17:11:16.459Z,17.10
2018-11-02T17:13:54.465Z,17.10
2018-11-02T17:16:32.361Z,17.00
2018-11-02T17:19:14.140Z,17.00
2018-11-02T17:21:51.538Z,17.00
2018-11-02T17:24:28.564Z,16.90
2018-11-02T17:27:06.553Z,16.90
2018-11-02T17:29:43.483Z,16.90
2018-11-02T17:32:20.842Z,16.90
2018-11-02T17:34:58.023Z,16.90
2018-11-02T17:37:35.462Z,16.70
2018-11-02T17:40:14.350Z,16.60
2018-11-02T17:42:51.438Z,16.50
2018-11-02T17:45:28.642Z,16.40
2018-11-02T17:48:07.041Z,16.40
2018-11-02T17:50:43.963Z,16.30
2018-11-02T17:53:21.757Z,16.30
2018-11-02T17:55:59.038Z,16.40
2018-11-02T17:58:36.211Z,16.40
2018-11-02T18:03:50.209Z,16.30
2018-11-02T18:06:28.439Z,16.40
2018-11-02T18:09:10.256Z,16.40
2018-11-02T18:11:47.608Z,16.30
2018-11-02T18:14:24.457Z,16.30
2018-11-02T18:17:02.210Z,16.30
2018-11-02T18:19:39.375Z,16.30
2018-11-02T18:22:16.796Z,16.30
2018-11-02T18:24:57.973Z,16.20
2018-11-02T18:27:39.443Z,16.20
2018-11-02T18:30:17.829Z,16.20
2018-11-02T18:32:56.596Z,16.20
2018-11-02T18:35:36.816Z,16.20
2018-11-02T18:38:17.364Z,16.20
2018-11-02T18:40:55.973Z,16.10
2018-11-02T18:49:00.754Z,16.00
2018-11-02T18:51:40.413Z,16.00
2018-11-02T18:54:21.899Z,16.00
2018-11-02T18:57:01.987Z,16.00
2018-11-02T19:02:17.916Z,16.00
2018-11-02T19:04:59.406Z,15.90
2018-11-02T19:07:37.611Z,15.90
2018-11-02T19:10:18.456Z,15.90
2018-11-02T19:12:57.951Z,15.80
2018-11-02T19:18:24.122Z,15.80
2018-11-02T19:21:03.068Z,15.80
2018-11-02T19:23:41.538Z,15.70
2018-11-02T19:28:56.853Z,15.70
2018-11-02T19:31:36.386Z,15.70
2018-11-02T19:36:51.017Z,15.70
2018-11-02T19:39:30.999Z,15.70
2018-11-02T19:42:11.193Z,15.70
2018-11-02T19:44:54.214Z,15.70
2018-11-02T19:50:19.081Z,15.60
2018-11-02T19:52:59.334Z,15.60
2018-11-02T19:55:39.364Z,15.60
2018-11-02T19:58:19.869Z,15.60
2018-11-02T20:00:58.905Z,15.60
2018-11-02T20:06:15.875Z,15.60
2018-11-02T20:08:57.020Z,15.60
2018-11-02T20:14:13.648Z,15.40
2018-11-02T20:16:53.066Z,15.40
2018-11-02T20:19:33.377Z,15.50
2018-11-02T20:22:12.843Z,15.50
2018-11-02T20:24:52.155Z,15.40
2018-11-02T20:27:31.395Z,15.40
2018-11-02T20:30:21.297Z,15.40
2018-11-02T20:33:01.980Z,15.30
2018-11-02T20:35:45.832Z,15.10
2018-11-02T20:38:24.566Z,15.10
2018-11-02T20:41:03.918Z,15.00
2018-11-02T20:43:53.789Z,15.00
2018-11-02T20:46:34.112Z,15.00
2018-11-02T20:51:53.471Z,15.00
2018-11-02T21:00:01.466Z,14.90
2018-11-02T21:02:42.386Z,14.90
2018-11-02T21:07:58.854Z,15.00
2018-11-02T21:10:39.995Z,15.00
2018-11-02T21:15:57.779Z,15.00
2018-11-02T21:21:18.972Z,15.20
2018-11-02T21:26:35.944Z,15.20
2018-11-02T21:29:17.270Z,15.20
2018-11-02T21:31:56.346Z,15.20
2018-11-02T21:37:11.880Z,15.20
2018-11-02T21:39:58.118Z,15.20
2018-11-02T21:42:38.227Z,15.20
2018-11-02T21:45:19.875Z,15.20
2018-11-02T21:48:00.045Z,15.20
2018-11-02T21:50:39.352Z,15.10
2018-11-02T21:53:18.176Z,15.10
2018-11-02T21:55:55.944Z,15.10
2018-11-02T21:58:32.955Z,15.10
2018-11-02T22:01:09.971Z,15.00
2018-11-02T22:03:47.819Z,15.00
2018-11-02T22:06:25.685Z,15.00
2018-11-02T22:09:08.799Z,15.00
2018-11-02T22:11:46.895Z,15.00
2018-11-02T22:14:24.011Z,14.90
2018-11-02T22:17:01.243Z,14.90
2018-11-02T22:19:38.598Z,14.90
2018-11-02T22:22:15.860Z,14.80
2018-11-02T22:24:53.435Z,14.80
2018-11-02T22:27:30.560Z,14.90
2018-11-02T22:30:14.422Z,14.90
2018-11-02T22:32:51.611Z,14.90
2018-11-02T22:35:28.814Z,14.90
2018-11-02T22:38:06.386Z,14.90
2018-11-02T22:40:43.673Z,14.90
2018-11-02T22:43:21.701Z,14.90
2018-11-02T22:45:59.165Z,14.90
2018-11-02T22:48:36.965Z,14.90
2018-11-02T22:51:14.744Z,14.80
2018-11-02T22:53:52.564Z,14.70
2018-11-02T22:56:29.880Z,14.60
2018-11-02T22:59:06.797Z,14.50
2018-11-02T23:01:43.836Z,14.50
2018-11-02T23:04:20.889Z,14.50
2018-11-02T23:07:02.427Z,14.60
2018-11-02T23:09:39.812Z,14.60
2018-11-02T23:14:53.240Z,14.70
2018-11-02T23:17:30.067Z,14.70
2018-11-02T23:20:10.770Z,14.60
2018-11-02T23:22:47.728Z,14.50
2018-11-02T23:25:24.861Z,14.40
2018-11-02T23:28:01.799Z,14.30
2018-11-02T23:30:38.762Z,14.30
2018-11-02T23:33:16.284Z,14.40
2018-11-02T23:35:53.570Z,14.40
2018-11-02T23:38:32.398Z,14.40
2018-11-02T23:41:09.781Z,14.40
2018-11-02T23:43:47.135Z,14.30
2018-11-02T23:49:00.726Z,13.90
2018-11-02T23:51:37.785Z,13.70
2018-11-02T23:54:16.046Z,13.60
2018-11-02T23:56:53.847Z,13.50
2018-11-02T23:59:30.991Z,13.50
